Time;durP1;ratioP1;P1;durP2;ratioP2;P2;SDS_P1;SDS_P2;PMS_P1;PMS_P2;Temp;Humidity;BMP_temperature;BMP_pressure;BME280_temperature;BME280_humidity;BME280_pressure;Samples;Min_cycle;Max_cycle;Signal;HPM_P1;HPM_P2
2021/12/04 00:00:21;;;;;;;5.85;2.97;;;;;;;18.82;48.24;99960.66;5031084;28;20037;-65
2021/12/04 00:02:47;;;;;;;5.07;3.08;;;;;;;18.80;48.37;99965.28;5032817;28;20048;-64
2021/12/04 00:05:13;;;;;;;5.18;2.80;;;;;;;18.79;48.28;99957.50;5048446;28;20041;-65
2021/12/04 00:07:39;;;;;;;5.43;2.88;;;;;;;18.76;47.66;99947.19;5033402;28;20072;-64
2021/12/04 00:10:05;;;;;;;6.72;3.22;;;;;;;18.69;48.06;99947.81;5032096;28;20080;-64
2021/12/04 00:12:31;;;;;;;6.82;3.42;;;;;;;18.68;48.02;99946.16;5048516;28;20037;-65
2021/12/04 00:14:57;;;;;;;5.55;2.95;;;;;;;18.69;47.81;99954.94;5050862;28;20052;-64
2021/12/04 00:17:23;;;;;;;7.05;3.33;;;;;;;18.68;48.33;99950.63;5032368;28;20045;-64
2021/12/04 00:19:48;;;;;;;7.10;3.25;;;;;;;18.66;48.26;99947.31;5030770;28;20488;-64
2021/12/04 00:22:14;;;;;;;5.95;3.67;;;;;;;18.65;48.27;99945.66;5048380;28;20049;-64
2021/12/04 00:24:40;;;;;;;6.07;3.47;;;;;;;18.63;47.91;99942.31;5048631;28;20048;-64
2021/12/04 00:27:05;;;;;;;6.40;3.60;;;;;;;18.61;47.95;99944.28;5062432;28;20060;-65
2021/12/04 00:29:31;;;;;;;5.38;3.22;;;;;;;18.61;47.93;99946.94;5050753;28;20561;-64
2021/12/04 00:32:00;;;;;;;6.88;3.60;;;;;;;18.60;47.74;99951.44;5069290;28;20051;-64
2021/12/04 00:34:27;;;;;;;6.78;3.38;;;;;;;18.61;47.72;99947.78;5050469;28;20044;-64
2021/12/04 00:50:21;;;;;;;6.20;3.67;;;;;;;18.54;47.99;99932.66;5053844;28;20132;-65
2021/12/04 00:52:46;;;;;;;6.28;3.60;;;;;;;18.49;47.50;99928.66;5069483;28;20112;-64
2021/12/04 00:55:11;;;;;;;6.32;3.72;;;;;;;18.49;47.99;99925.19;5045407;28;20040;-65
2021/12/04 00:57:38;;;;;;;6.78;3.78;;;;;;;18.52;47.90;99930.16;5046860;28;20558;-64
2021/12/04 01:00:06;;;;;;;6.45;3.75;;;;;;;18.48;47.79;99929.63;5068717;28;20036;-65
2021/12/04 01:02:31;;;;;;;6.95;4.07;;;;;;;18.48;47.68;99928.81;5051577;28;20048;-64
2021/12/04 01:04:57;;;;;;;7.05;4.03;;;;;;;18.44;48.06;99925.66;5033685;28;20041;-64
2021/12/04 01:07:24;;;;;;;6.85;3.92;;;;;;;18.44;47.47;99919.50;5067920;28;20073;-65
2021/12/04 01:09:50;;;;;;;7.00;4.10;;;;;;;18.44;47.74;99917.69;5068678;28;20052;-64
2021/12/04 01:12:16;;;;;;;6.97;4.22;;;;;;;18.42;47.70;99914.34;5050655;28;20136;-65
2021/12/04 01:14:41;;;;;;;7.53;4.13;;;;;;;18.44;47.97;99911.53;5068103;28;20060;-65
2021/12/04 01:17:07;;;;;;;8.38;4.65;;;;;;;18.40;47.75;99905.72;5066034;28;20510;-64
2021/12/04 01:19:32;;;;;;;7.47;4.35;;;;;;;18.41;47.94;99902.06;5067404;28;20051;-64
2021/12/04 01:21:58;;;;;;;6.68;4.03;;;;;;;18.36;47.88;99900.88;5068612;28;20045;-64
2021/12/04 01:24:23;;;;;;;8.15;4.28;;;;;;;18.35;47.70;99901.88;5050740;28;20037;-65
2021/12/04 01:26:49;;;;;;;9.57;4.80;;;;;;;18.35;47.47;99901.88;5059496;28;20115;-64
2021/12/04 01:29:15;;;;;;;7.47;5.03;;;;;;;18.31;48.28;99896.06;5067898;28;20572;-64
2021/12/04 01:31:40;;;;;;;7.45;4.63;;;;;;;18.30;47.85;99893.56;5068892;28;20123;-64
2021/12/04 01:34:06;;;;;;;7.80;5.03;;;;;;;18.30;48.17;99899.72;5045999;28;20051;-65
2021/12/04 01:36:32;;;;;;;9.20;4.70;;;;;;;18.27;47.65;99900.88;5048263;28;20485;-64
2021/12/04 01:38:57;;;;;;;7.93;4.53;;;;;;;18.29;48.07;99903.34;5066096;28;20102;-64
2021/12/04 01:41:23;;;;;;;8.10;4.93;;;;;;;18.26;47.70;99890.38;5050260;28;20489;-64
2021/12/04 01:43:49;;;;;;;8.10;4.30;;;;;;;18.27;48.14;99894.72;5068522;28;20059;-64
2021/12/04 01:46:15;;;;;;;8.73;4.55;;;;;;;18.25;48.00;99905.50;5030234;28;20040;-65
2021/12/04 01:48:40;;;;;;;9.20;5.03;;;;;;;18.25;48.01;99896.69;5061595;28;20081;-64
2021/12/04 01:51:06;;;;;;;8.02;4.82;;;;;;;18.22;47.49;99892.53;5029580;28;20484;-64
2021/12/04 01:53:31;;;;;;;7.75;4.97;;;;;;;18.20;47.52;99891.84;5048190;28;20131;-64
2021/12/04 01:55:57;;;;;;;7.80;5.07;;;;;;;18.19;47.59;99892.84;5067369;28;20032;-64
2021/12/04 01:58:23;;;;;;;8.52;5.13;;;;;;;18.16;48.11;99893.19;5067403;28;20040;-65
2021/12/04 02:00:49;;;;;;;9.48;4.90;;;;;;;18.16;47.79;99889.69;5045883;28;20481;-64
2021/12/04 02:03:14;;;;;;;8.80;5.50;;;;;;;18.17;48.20;99894.81;5029945;28;20033;-64
2021/12/04 02:05:40;;;;;;;9.00;5.10;;;;;;;18.16;47.76;99890.53;5019399;28;20059;-65
2021/12/04 02:08:06;;;;;;;9.57;5.45;;;;;;;18.17;47.62;99891.34;5046713;28;20136;-65
2021/12/04 02:10:32;;;;;;;7.75;4.80;;;;;;;18.16;48.00;99887.03;5050201;28;20522;-64
2021/12/04 02:12:58;;;;;;;8.85;5.20;;;;;;;18.17;47.77;99894.00;5034379;28;20037;-64
2021/12/04 02:15:23;;;;;;;9.30;4.97;;;;;;;18.16;47.80;99897.66;5052616;28;20051;-64
2021/12/04 02:17:49;;;;;;;8.50;5.43;;;;;;;18.16;47.73;99893.19;5063491;28;20489;-65
2021/12/04 02:20:17;;;;;;;9.68;5.40;;;;;;;18.14;48.00;99891.66;5067561;28;20131;-64
2021/12/04 02:22:42;;;;;;;9.80;5.68;;;;;;;18.11;47.22;99881.38;5050488;28;20680;-64
2021/12/04 02:25:09;;;;;;;11.23;5.88;;;;;;;18.11;47.53;99884.84;5064501;28;20036;-64
2021/12/04 02:27:35;;;;;;;9.73;5.50;;;;;;;18.11;47.91;99879.53;5014303;28;20045;-64
2021/12/04 02:30:02;;;;;;;11.30;5.90;;;;;;;18.09;47.73;99878.88;5061812;28;20182;-66
2021/12/04 02:32:29;;;;;;;10.70;5.85;;;;;;;18.08;47.90;99877.19;5049158;28;20400;-64
2021/12/04 02:34:55;;;;;;;10.20;6.13;;;;;;;18.08;47.88;99874.56;5049580;28;20037;-64
2021/12/04 02:37:20;;;;;;;9.88;5.57;;;;;;;18.07;47.75;99877.38;5049083;28;20040;-64
2021/12/04 02:39:46;;;;;;;10.02;5.50;;;;;;;18.08;47.69;99869.25;5062058;28;20594;-64
2021/12/04 02:42:21;;;;;;;10.02;6.00;;;;;;;18.06;47.68;99875.72;5047714;28;20493;-65
2021/12/04 02:44:48;;;;;;;11.27;6.50;;;;;;;18.04;47.57;99865.25;5030384;28;20164;-64
2021/12/04 02:47:13;;;;;;;11.27;6.38;;;;;;;18.06;47.58;99865.09;5061042;28;20044;-65
2021/12/04 02:49:39;;;;;;;10.32;5.85;;;;;;;18.01;47.80;99868.22;5046996;28;20116;-64
2021/12/04 02:52:07;;;;;;;10.75;5.90;;;;;;;17.99;47.79;99865.75;5047773;28;20452;-65
2021/12/04 02:54:33;;;;;;;10.27;6.05;;;;;;;18.00;47.73;99855.97;5047269;28;20455;-64
2021/12/04 02:56:59;;;;;;;10.30;5.90;;;;;;;18.00;47.57;99848.00;5040157;28;20496;-64
2021/12/04 02:59:25;;;;;;;11.90;6.68;;;;;;;18.00;47.82;99853.31;5034023;28;20032;-64
2021/12/04 03:01:53;;;;;;;11.02;5.95;;;;;;;17.99;47.88;99843.69;5017245;28;20090;-64
2021/12/04 03:04:19;;;;;;;13.77;6.57;;;;;;;17.98;47.60;99847.31;5036746;28;20510;-64
2021/12/04 03:06:46;;;;;;;11.70;6.55;;;;;;;17.99;47.86;99849.00;5046726;28;20032;-64
2021/12/04 03:09:15;;;;;;;12.25;6.45;;;;;;;17.98;47.50;99849.97;5036794;28;20556;-64
2021/12/04 03:11:41;;;;;;;11.48;6.47;;;;;;;18.00;47.72;99851.47;5071730;28;20123;-64
2021/12/04 03:14:06;;;;;;;12.20;6.45;;;;;;;17.99;47.78;99843.69;5053191;28;20041;-65
2021/12/04 03:16:32;;;;;;;12.63;6.88;;;;;;;17.95;47.57;99848.47;5053485;28;20471;-65
2021/12/04 03:18:58;;;;;;;11.77;6.88;;;;;;;17.92;47.67;99838.16;5071319;28;20049;-64
2021/12/04 03:21:23;;;;;;;11.82;6.47;;;;;;;17.95;47.64;99835.19;5036513;28;20059;-65
2021/12/04 03:24:01;;;;;;;10.43;6.18;;;;;;;17.95;47.83;99832.53;5068787;28;20051;-64
2021/12/04 03:26:27;;;;;;;10.93;5.95;;;;;;;17.94;47.82;99836.19;5053487;28;20561;-64
2021/12/04 03:28:54;;;;;;;12.80;6.40;;;;;;;17.93;47.77;99834.53;5053270;28;20140;-64
2021/12/04 03:42:04;;;;;;;10.05;6.03;;;;;;;17.86;47.98;99811.44;5067915;28;20503;-65
2021/12/04 03:44:31;;;;;;;11.90;6.18;;;;;;;17.85;47.57;99817.75;5070670;28;20037;-64
2021/12/04 03:46:58;;;;;;;10.55;6.18;;;;;;;17.86;47.85;99819.41;5058348;28;20037;-64
2021/12/04 03:49:23;;;;;;;11.02;6.60;;;;;;;17.86;47.68;99822.06;5055609;28;20064;-64
2021/12/04 03:51:48;;;;;;;10.75;6.28;;;;;;;17.87;47.79;99815.78;5060031;28;20407;-64
2021/12/04 03:54:14;;;;;;;11.43;6.32;;;;;;;17.88;47.81;99820.09;5048761;28;20072;-64
2021/12/04 03:56:40;;;;;;;13.13;6.78;;;;;;;17.87;47.50;99815.78;5059595;28;20450;-64
2021/12/04 03:59:05;;;;;;;12.48;6.72;;;;;;;17.83;47.64;99817.91;5069482;28;20048;-64
2021/12/04 04:01:30;;;;;;;12.15;6.38;;;;;;;17.82;47.27;99812.75;5070868;28;20040;-64
2021/12/04 04:03:56;;;;;;;11.70;6.28;;;;;;;17.84;47.41;99808.13;5036606;28;20214;-64
2021/12/04 04:06:21;;;;;;;11.23;6.43;;;;;;;17.79;47.84;99805.94;5069420;28;20063;-64
2021/12/04 04:08:47;;;;;;;11.57;6.38;;;;;;;17.79;48.03;99809.41;5041753;28;20447;-64
2021/12/04 04:11:12;;;;;;;12.20;6.57;;;;;;;17.72;47.87;99811.03;5048959;28;20508;-64
2021/12/04 04:13:41;;;;;;;10.50;6.28;;;;;;;17.75;47.92;99808.06;5069705;28;20037;-64
2021/12/04 04:16:07;;;;;;;12.73;6.47;;;;;;;17.74;47.78;99802.94;5048147;28;20052;-64
2021/12/04 04:18:33;;;;;;;11.95;6.75;;;;;;;17.74;47.85;99802.94;5069178;28;20075;-64
2021/12/04 04:20:58;;;;;;;11.63;6.75;;;;;;;17.74;47.80;99798.44;5052410;28;20040;-64
2021/12/04 04:23:24;;;;;;;10.73;6.25;;;;;;;17.72;47.76;99791.63;5051744;28;20048;-64
2021/12/04 04:25:49;;;;;;;11.88;6.55;;;;;;;17.72;47.86;99787.16;5069501;28;20033;-64
2021/12/04 04:28:15;;;;;;;10.20;5.97;;;;;;;17.75;47.79;99784.19;5041217;28;20052;-65
2021/12/04 04:30:40;;;;;;;13.05;6.75;;;;;;;17.70;47.94;99778.50;5041955;28;20074;-65
2021/12/04 04:33:07;;;;;;;11.20;6.55;;;;;;;17.72;47.79;99768.59;5051215;28;20492;-64
2021/12/04 04:35:33;;;;;;;10.40;6.13;;;;;;;17.75;47.57;99770.09;5033495;28;20041;-64
2021/12/04 05:10:15;;;;;;;10.55;5.97;;;;;;;17.62;47.41;99761.75;5050943;28;20033;-65
2021/12/04 05:13:30;;;;;;;10.32;6.07;;;;;;;17.53;47.91;99764.34;5040988;28;20713;-65
2021/12/04 05:16:09;;;;;;;11.50;5.47;;;;;;;17.57;47.82;99762.22;5063503;28;20056;-65
2021/12/04 05:18:37;;;;;;;11.65;6.15;;;;;;;17.53;47.75;99759.06;5038123;28;20036;-65
2021/12/04 05:21:04;;;;;;;10.20;5.78;;;;;;;17.53;48.08;99763.53;5050199;28;20098;-65
2021/12/04 05:23:34;;;;;;;9.77;5.88;;;;;;;17.54;47.91;99767.84;5051523;28;20036;-65
2021/12/04 05:26:01;;;;;;;9.93;5.72;;;;;;;17.53;47.83;99756.41;5034172;28;20090;-65
2021/12/04 05:28:26;;;;;;;10.73;5.97;;;;;;;17.51;47.81;99753.06;5068735;28;20044;-65
2021/12/04 05:30:52;;;;;;;10.73;5.60;;;;;;;17.50;48.01;99755.91;5050968;28;20041;-65
2021/12/04 05:33:17;;;;;;;11.63;6.00;;;;;;;17.52;47.76;99743.31;5050702;28;20071;-65
2021/12/04 05:35:47;;;;;;;11.85;6.18;;;;;;;17.51;47.86;99739.81;5024650;28;20048;-64
2021/12/04 05:38:13;;;;;;;10.35;5.97;;;;;;;17.50;48.07;99739.97;5031231;28;20052;-65
2021/12/04 05:40:38;;;;;;;10.48;6.20;;;;;;;17.47;48.10;99732.34;5027634;28;20040;-65
2021/12/04 05:43:04;;;;;;;11.88;6.20;;;;;;;17.49;47.99;99725.06;5067133;28;20036;-65
2021/12/04 05:45:31;;;;;;;12.48;6.63;;;;;;;17.51;48.27;99733.69;5050476;28;20496;-65
2021/12/04 05:48:08;;;;;;;11.77;6.60;;;;;;;17.49;47.91;99735.69;5067605;28;20510;-64
2021/12/04 05:50:42;;;;;;;11.77;6.25;;;;;;;17.48;47.78;99736.66;5051918;28;20052;-65
2021/12/04 05:53:24;;;;;;;13.70;6.22;;;;;;;17.47;47.51;99732.34;5051042;28;20046;-65
2021/12/04 05:58:22;;;;;;;10.77;5.90;;;;;;;17.49;47.59;99735.69;5048004;28;20076;-65
2021/12/04 06:00:47;;;;;;;10.88;6.10;;;;;;;17.49;47.86;99730.38;5032912;28;20458;-65
2021/12/04 06:03:13;;;;;;;12.13;6.35;;;;;;;17.43;48.13;99729.19;5044444;28;20501;-65
2021/12/04 06:05:38;;;;;;;11.10;5.88;;;;;;;17.47;48.11;99719.09;5068170;28;20032;-65
2021/12/04 06:08:04;;;;;;;11.65;6.32;;;;;;;17.52;47.81;99719.47;5027227;28;20033;-65
2021/12/04 06:10:29;;;;;;;11.70;6.30;;;;;;;17.55;47.71;99721.78;5049056;28;20036;-65
2021/12/04 06:12:55;;;;;;;11.05;6.00;;;;;;;17.62;47.49;99721.97;5059171;28;20559;-65
2021/12/04 06:15:20;;;;;;;11.90;6.13;;;;;;;17.66;47.35;99720.66;5034597;28;20052;-65
2021/12/04 06:17:45;;;;;;;11.25;5.95;;;;;;;17.74;47.38;99729.47;5048755;28;20048;-65
2021/12/04 06:22:55;;;;;;;10.98;5.43;;;;;;;17.92;47.56;99729.38;5052836;28;20565;-65
2021/12/04 06:25:24;;;;;;;10.55;5.45;;;;;;;18.02;47.49;99734.56;5056989;28;20140;-65
2021/12/04 06:27:50;;;;;;;13.07;6.45;;;;;;;17.93;47.42;99723.09;5026298;28;20439;-66
2021/12/04 06:30:16;;;;;;;14.07;6.50;;;;;;;17.86;47.84;99718.59;5066852;28;20095;-65
2021/12/04 06:32:41;;;;;;;13.45;5.75;;;;;;;17.99;47.85;99719.78;5067367;28;20419;-65
2021/12/04 06:35:09;;;;;;;10.70;4.72;;;;;;;18.17;47.93;99724.94;5064218;28;20090;-65
2021/12/04 06:37:34;;;;;;;9.48;5.10;;;;;;;18.32;47.44;99716.34;5064870;28;20031;-65
2021/12/04 06:40:00;;;;;;;10.18;5.03;;;;;;;18.44;47.23;99717.69;5068387;28;20048;-64
2021/12/04 06:42:25;;;;;;;16.33;5.00;;;;;;;18.53;47.23;99718.53;5055162;28;20633;-65
2021/12/04 06:44:55;;;;;;;10.27;4.63;;;;;;;18.61;47.53;99727.28;5030421;28;20041;-65
2021/12/04 06:47:21;;;;;;;10.95;4.30;;;;;;;18.67;46.77;99726.63;5035561;28;20076;-65
2021/12/04 06:49:46;;;;;;;8.90;3.72;;;;;;;18.69;47.66;99719.34;5049961;28;20087;-66
2021/12/04 06:52:22;;;;;;;8.20;3.72;;;;;;;18.75;47.36;99711.75;5059361;28;20091;-66
2021/12/04 06:54:55;;;;;;;6.43;3.50;;;;;;;18.78;47.64;99711.41;5032322;28;20052;-65
2021/12/04 06:57:21;;;;;;;6.88;3.30;;;;;;;18.81;47.19;99714.56;5041147;28;20056;-65
2021/12/04 06:59:48;;;;;;;6.82;3.47;;;;;;;18.84;46.84;99702.75;5049158;28;20052;-65
2021/12/04 07:02:14;;;;;;;8.18;3.63;;;;;;;18.87;47.41;99699.75;5061192;28;20072;-65
2021/12/04 07:04:39;;;;;;;7.90;3.47;;;;;;;18.89;47.31;99697.75;5048130;28;20041;-65
2021/12/04 07:07:05;;;;;;;7.43;3.47;;;;;;;18.92;47.14;99697.41;5043284;28;20477;-66
2021/12/04 07:09:31;;;;;;;8.13;3.53;;;;;;;18.92;47.02;99697.41;5031844;28;20045;-65
2021/12/04 07:11:59;;;;;;;7.68;3.83;;;;;;;18.93;47.12;99694.59;5067458;28;20082;-65
2021/12/04 07:14:24;;;;;;;7.22;3.22;;;;;;;18.95;47.51;99697.06;5066285;28;20041;-65
2021/12/04 07:16:51;;;;;;;7.40;3.22;;;;;;;18.99;47.21;99698.41;5032261;28;20095;-65
2021/12/04 07:19:16;;;;;;;6.75;3.55;;;;;;;19.00;47.54;99694.75;5065069;28;20101;-65
2021/12/04 07:21:41;;;;;;;7.00;3.33;;;;;;;19.02;47.13;99697.22;5049542;28;20036;-66
2021/12/04 07:24:07;;;;;;;8.32;3.90;;;;;;;19.03;47.41;99705.03;5032788;28;20072;-66
2021/12/04 07:26:33;;;;;;;7.72;3.45;;;;;;;19.05;47.54;99695.03;5049701;28;20040;-65
2021/12/04 07:28:58;;;;;;;6.50;3.53;;;;;;;19.07;47.00;99694.91;5034589;28;20045;-65
2021/12/04 07:31:23;;;;;;;6.35;3.85;;;;;;;19.09;46.73;99690.25;5046701;28;20103;-65
2021/12/04 07:33:50;;;;;;;9.43;3.88;;;;;;;19.10;47.78;99690.06;5047448;28;20033;-65
2021/12/04 07:36:16;;;;;;;6.90;3.33;;;;;;;19.13;46.75;99694.22;5049291;28;20137;-65
2021/12/04 07:38:41;;;;;;;9.93;3.97;;;;;;;19.14;47.53;99691.38;5065724;28;20037;-63
2021/12/04 07:41:08;;;;;;;11.02;3.55;;;;;;;19.14;47.76;99688.72;5032167;28;20048;-65
2021/12/04 07:43:33;;;;;;;7.05;3.50;;;;;;;19.14;47.30;99680.72;5067655;28;20106;-65
2021/12/04 07:45:59;;;;;;;7.63;3.83;;;;;;;19.16;47.68;99667.28;5045339;28;20481;-65
2021/12/04 07:48:24;;;;;;;8.88;3.65;;;;;;;19.15;47.59;99653.16;5070561;28;20127;-65
2021/12/04 07:50:50;;;;;;;8.98;3.92;;;;;;;19.17;47.12;99643.16;5035818;28;20046;-65
2021/12/04 07:53:15;;;;;;;7.88;3.88;;;;;;;19.19;47.69;99645.69;5052423;28;20044;-64
2021/12/04 07:55:41;;;;;;;8.40;3.63;;;;;;;19.19;48.12;99661.63;5070314;28;20060;-63
2021/12/04 07:58:06;;;;;;;8.80;3.83;;;;;;;19.18;47.72;99663.47;5062934;28;20079;-64
2021/12/04 08:00:32;;;;;;;9.23;4.45;;;;;;;19.18;47.47;99660.81;5034025;28;20048;-64
2021/12/04 08:02:57;;;;;;;7.93;3.90;;;;;;;19.22;47.38;99660.47;5016322;28;20129;-64
2021/12/04 08:05:22;;;;;;;9.73;4.10;;;;;;;19.21;48.19;99650.81;5032141;28;20130;-64
2021/12/04 08:07:48;;;;;;;8.93;4.22;;;;;;;19.22;47.90;99655.97;5067003;28;20521;-64
2021/12/04 08:10:16;;;;;;;7.50;3.88;;;;;;;19.19;48.23;99643.84;5066268;28;20653;-64
2021/12/04 08:12:41;;;;;;;9.70;4.35;;;;;;;19.23;47.76;99648.81;5032581;28;20051;-64
2021/12/04 08:15:08;;;;;;;9.90;4.57;;;;;;;19.25;47.68;99649.47;5016821;28;20289;-64
2021/12/04 08:17:33;;;;;;;11.25;4.78;;;;;;;19.27;48.37;99650.13;5063823;28;20060;-63
2021/12/04 08:19:59;;;;;;;8.63;4.45;;;;;;;19.26;48.37;99651.94;5057612;28;20048;-64
2021/12/04 08:22:24;;;;;;;9.65;4.50;;;;;;;19.27;48.60;99664.25;5039161;28;20115;-64
2021/12/04 08:24:49;;;;;;;8.95;4.55;;;;;;;19.27;48.67;99658.91;5062576;28;20120;-65
2021/12/04 08:27:15;;;;;;;9.25;4.95;;;;;;;19.23;48.58;99660.28;5030557;28;20116;-65
2021/12/04 08:29:41;;;;;;;9.43;5.40;;;;;;;19.18;48.89;99660.81;5030488;28;20477;-64
2021/12/04 08:32:07;;;;;;;10.45;4.93;;;;;;;19.18;48.70;99659.97;5030032;28;20037;-65
2021/12/04 08:34:33;;;;;;;9.30;4.47;;;;;;;19.18;48.44;99663.47;5048705;28;20083;-65
2021/12/04 08:36:58;;;;;;;9.15;4.93;;;;;;;19.17;48.85;99659.13;5032243;28;20033;-65
2021/12/04 08:39:23;;;;;;;11.25;4.65;;;;;;;19.14;48.45;99658.66;5030094;28;20076;-65
2021/12/04 08:41:49;;;;;;;10.43;5.30;;;;;;;19.13;48.94;99663.13;5014367;28;20037;-65
2021/12/04 08:44:15;;;;;;;10.00;5.43;;;;;;;19.11;48.82;99659.81;5030179;28;20076;-65
2021/12/04 08:46:40;;;;;;;11.50;5.47;;;;;;;19.09;48.88;99659.19;5033099;28;20037;-65
2021/12/04 08:49:06;;;;;;;10.10;5.32;;;;;;;19.08;48.37;99654.84;5030245;28;20062;-65
2021/12/04 08:51:32;;;;;;;8.48;4.50;;;;;;;19.07;48.17;99652.38;5030610;28;20512;-64
2021/12/04 08:53:58;;;;;;;12.25;5.15;;;;;;;19.07;48.49;99650.53;5048348;28;20037;-65
2021/12/04 08:56:23;;;;;;;10.00;5.45;;;;;;;19.04;48.56;99644.72;5049640;28;20038;-65
2021/12/04 08:58:49;;;;;;;11.35;5.65;;;;;;;19.02;48.58;99644.06;5048015;28;20729;-65
2021/12/04 09:01:22;;;;;;;12.48;5.75;;;;;;;18.98;48.43;99632.94;5047402;28;20109;-64
2021/12/04 09:03:48;;;;;;;10.18;5.15;;;;;;;18.98;49.18;99622.31;5050695;28;20519;-64
2021/12/04 09:06:13;;;;;;;13.70;5.32;;;;;;;18.99;48.18;99629.31;5029647;28;20037;-65
2021/12/04 09:08:39;;;;;;;11.80;5.93;;;;;;;18.94;48.87;99624.50;5031000;28;20553;-65
2021/12/04 09:11:23;;;;;;;13.10;6.22;;;;;;;18.92;48.46;99628.31;5047341;28;20056;-66
2021/12/04 09:13:49;;;;;;;10.07;5.35;;;;;;;18.93;48.44;99635.31;5030534;28;20362;-65
2021/12/04 09:16:15;;;;;;;12.50;6.22;;;;;;;18.92;48.26;99638.94;5047040;28;20116;-65
2021/12/04 09:18:40;;;;;;;12.50;6.32;;;;;;;18.91;48.48;99635.47;5051235;28;20044;-64
2021/12/04 09:21:06;;;;;;;10.98;5.93;;;;;;;18.89;48.59;99631.31;5061650;28;20045;-64
2021/12/04 09:23:38;;;;;;;9.85;5.53;;;;;;;18.81;48.40;99637.50;5037046;28;20124;-63
2021/12/04 09:26:04;;;;;;;11.05;5.55;;;;;;;18.79;48.39;99630.69;5047484;28;20128;-64
2021/12/04 09:36:28;;;;;;;9.85;5.35;;;;;;;18.66;48.46;99620.56;5048411;28;19963;-63
2021/12/04 10:01:08;;;;;;;9.73;4.80;;;;;;;18.53;48.18;99604.31;5068209;28;20055;-63
2021/12/04 10:11:48;;;;;;;8.60;4.88;;;;;;;18.48;47.81;99596.84;5047825;28;20055;-63
2021/12/04 10:32:38;;;;;;;7.90;4.53;;;;;;;18.31;47.86;99576.66;5052806;28;20439;-63
2021/12/04 10:35:08;;;;;;;7.63;4.95;;;;;;;18.31;47.59;99564.19;5051065;28;20124;-63
2021/12/04 10:37:37;;;;;;;7.43;4.35;;;;;;;18.29;47.78;99549.44;5049207;28;20045;-63
2021/12/04 10:40:08;;;;;;;8.85;4.95;;;;;;;18.26;47.95;99559.38;5067572;28;20045;-64
2021/12/04 10:42:48;;;;;;;7.60;4.50;;;;;;;18.26;47.78;99558.56;5030750;28;20040;-64
2021/12/04 10:45:14;;;;;;;;;;;;;;;18.23;48.16;99554.41;5035865;28;20048;-64
2021/12/04 10:47:50;;;;;;;7.63;4.32;;;;;;;18.25;48.35;99549.75;5059086;28;19924;-65
2021/12/04 10:50:30;;;;;;;6.75;4.28;;;;;;;18.38;48.37;99561.69;5055058;28;20040;-65
2021/12/04 10:53:01;;;;;;;9.93;4.45;;;;;;;18.48;49.00;99557.84;5035408;28;20456;-63
2021/12/04 10:55:49;;;;;;;8.43;4.82;;;;;;;18.61;49.08;99556.47;5052814;28;20060;-64
2021/12/04 10:58:38;;;;;;;9.02;5.10;;;;;;;18.63;49.32;99554.50;5043241;28;20489;-65
2021/12/04 11:18:41;;;;;;;9.40;4.63;;;;;;;18.75;48.91;99531.91;5029139;28;20064;-66
2021/12/04 11:20:22;;;;;;;10.73;5.68;;;;;;;18.92;48.96;99527.34;5066372;28;20043;-65
2021/12/04 11:35:01;;;;;;;11.05;4.43;;;;;;;19.04;48.50;99502.03;5060488;28;20040;-65
2021/12/04 11:36:26;;;;;;;8.73;4.25;;;;;;;19.13;49.14;99500.97;5050500;28;20111;-66
2021/12/04 11:41:25;;;;;;;10.18;4.82;;;;;;;19.17;49.37;99491.63;5031487;28;20065;-65
2021/12/04 11:44:01;;;;;;;9.73;4.47;;;;;;;19.20;49.44;99487.81;5039071;28;20036;-65
2021/12/04 11:46:44;;;;;;;9.48;4.40;;;;;;;19.26;48.37;99492.44;5023243;28;20438;-65
2021/12/04 11:49:24;;;;;;;11.20;5.70;;;;;;;19.26;49.41;99496.91;5050047;28;20070;-65
2021/12/04 11:51:58;;;;;;;14.88;5.25;;;;;;;19.26;48.90;99483.63;5068730;28;20033;-65
2021/12/04 11:54:28;;;;;;;12.85;5.32;;;;;;;19.27;49.51;99480.78;5052742;28;20048;-65
2021/12/04 11:56:58;;;;;;;13.32;5.75;;;;;;;19.28;49.18;99471.00;5052388;28;20048;-64
2021/12/04 11:59:28;;;;;;;11.45;4.82;;;;;;;19.29;48.68;99473.47;5049562;28;20123;-66
2021/12/04 12:01:57;;;;;;;13.70;6.00;;;;;;;19.25;49.20;99476.66;5042091;28;20045;-65
2021/12/04 12:04:31;;;;;;;12.47;5.23;;;;;;;19.28;48.85;99471.81;5047412;28;20100;-65
2021/12/04 12:06:57;;;;;;;12.65;5.05;;;;;;;19.30;49.27;99461.00;5043514;28;20610;-65
2021/12/04 12:09:28;;;;;;;11.70;5.00;;;;;;;19.34;49.48;99457.81;5061331;28;20033;-65
2021/12/04 12:11:59;;;;;;;13.23;5.25;;;;;;;19.37;48.47;99468.09;5032539;28;20045;-64
2021/12/04 12:14:38;;;;;;;11.20;4.90;;;;;;;19.40;49.42;99461.59;5032262;28;20029;-66
2021/12/04 12:17:04;;;;;;;12.90;5.78;;;;;;;19.40;49.31;99458.94;5033003;28;20040;-64
2021/12/04 12:19:39;;;;;;;11.55;5.13;;;;;;;19.42;48.40;99460.38;5051026;28;20041;-64
2021/12/04 12:22:12;;;;;;;11.15;5.35;;;;;;;19.43;48.70;99450.59;5037143;28;20052;-64
2021/12/04 12:36:22;;;;;;;14.60;6.72;;;;;;;19.25;48.93;99460.72;4975507;28;20061;-65
2021/12/04 12:38:48;;;;;;;13.73;6.50;;;;;;;19.25;49.58;99464.19;5039202;28;20055;-65
2021/12/04 12:41:32;;;;;;;13.27;6.40;;;;;;;19.37;49.09;99461.94;5053047;28;20127;-65
2021/12/04 12:44:09;;;;;;;14.13;6.47;;;;;;;19.44;49.30;99460.22;5058129;28;20037;-65
2021/12/04 12:46:37;;;;;;;12.50;5.75;;;;;;;19.47;49.12;99453.72;5067638;28;20504;-65
2021/12/04 12:49:04;;;;;;;10.80;5.72;;;;;;;19.47;49.39;99457.22;5039514;28;20121;-66
2021/12/04 12:51:34;;;;;;;13.68;5.95;;;;;;;19.41;48.68;99448.09;5042777;28;20041;-65
2021/12/04 12:54:03;;;;;;;10.52;5.22;;;;;;;19.45;49.12;99443.25;5014749;28;20045;-63
2021/12/04 12:56:30;;;;;;;13.25;5.28;;;;;;;19.48;49.07;99453.53;5030111;28;20041;-65
2021/12/04 13:12:55;;;;;;;12.02;5.63;;;;;;;19.38;50.06;99437.81;5049849;28;20052;-65
2021/12/04 13:15:40;;;;;;;15.80;6.22;;;;;;;19.38;50.84;99426.38;5053313;28;20048;-65
2021/12/04 13:18:21;;;;;;;13.13;5.97;;;;;;;19.40;50.47;99432.34;5045653;28;20048;-65
2021/12/04 13:20:47;;;;;;;16.05;7.07;;;;;;;19.35;50.38;99421.41;5056600;28;20120;-64
2021/12/04 13:23:15;;;;;;;13.15;7.10;;;;;;;19.34;51.06;99415.25;5030021;28;20052;-65
2021/12/04 13:25:54;;;;;;;13.73;7.70;;;;;;;19.41;50.61;99412.72;5046881;28;20131;-65
2021/12/04 13:28:21;;;;;;;13.35;7.10;;;;;;;19.42;50.23;99407.19;5032368;28;20555;-65
2021/12/04 13:30:46;;;;;;;14.70;7.97;;;;;;;19.41;50.10;99410.88;5032540;28;20045;-63
2021/12/04 13:33:12;;;;;;;16.70;7.22;;;;;;;19.46;49.88;99415.66;5058386;28;20044;-64
2021/12/04 13:35:37;;;;;;;12.90;7.32;;;;;;;19.52;51.30;99420.25;5030144;28;20190;-64
2021/12/04 13:38:04;;;;;;;14.48;7.40;;;;;;;19.49;50.96;99423.28;5048915;28;20484;-64
2021/12/04 13:40:29;;;;;;;13.52;7.55;;;;;;;19.49;51.11;99439.25;5048640;28;20060;-64
2021/12/04 13:42:55;;;;;;;14.40;7.30;;;;;;;19.53;51.62;99440.53;5037614;28;20037;-64
2021/12/04 13:45:20;;;;;;;16.90;8.75;;;;;;;19.58;50.45;99451.44;5045639;28;20073;-64
2021/12/04 13:47:53;;;;;;;16.27;8.02;;;;;;;19.60;51.28;99444.13;5031276;28;20065;-65
2021/12/04 13:52:51;;;;;;;14.07;7.40;;;;;;;19.58;51.00;99438.16;5033559;28;20037;-64
2021/12/04 13:55:18;;;;;;;15.45;6.90;;;;;;;19.53;51.35;99443.19;5047045;28;20068;-64
2021/12/04 13:57:43;;;;;;;12.57;7.18;;;;;;;19.50;52.61;99450.72;5023895;28;20128;-64
2021/12/04 14:00:10;;;;;;;12.90;6.90;;;;;;;19.41;52.17;99444.63;5047786;28;20055;-64
2021/12/04 14:02:36;;;;;;;11.45;6.97;;;;;;;19.42;51.90;99443.63;5063665;28;20041;-64
2021/12/04 14:05:05;;;;;;;12.13;7.20;;;;;;;19.41;52.22;99444.63;5043587;28;20043;-66
2021/12/04 14:07:31;;;;;;;12.55;6.85;;;;;;;19.38;52.34;99437.81;5042857;28;20052;-66
2021/12/04 14:09:56;;;;;;;13.05;6.60;;;;;;;19.35;52.88;99446.16;5067131;28;20050;-65
2021/12/04 14:12:22;;;;;;;13.48;6.43;;;;;;;19.33;52.23;99447.34;5052926;28;20404;-65
2021/12/04 14:14:47;;;;;;;9.40;5.32;;;;;;;19.32;52.09;99446.50;5055218;28;20492;-65
2021/12/04 14:17:14;;;;;;;11.07;6.32;;;;;;;19.34;52.32;99443.69;5041768;28;20043;-65
2021/12/04 14:19:39;;;;;;;13.20;5.63;;;;;;;19.39;51.68;99446.63;5067056;28;20041;-65
2021/12/04 14:22:10;;;;;;;9.10;4.90;;;;;;;19.35;51.53;99450.66;5048127;28;20047;-66
2021/12/04 14:24:37;;;;;;;;;;;;;;;19.28;51.36;99457.69;5030746;28;20045;-65
2021/12/04 14:27:03;;;;;;;8.25;3.92;;;;;;;19.00;50.45;99454.72;5036230;28;19924;-66